Time;durP1;ratioP1;P1;durP2;ratioP2;P2;SDS_P1;SDS_P2;PMS_P1;PMS_P2;Temp;Humidity;BMP_temperature;BMP_pressure;BME280_temperature;BME280_humidity;BME280_pressure;Samples;Min_cycle;Max_cycle;Signal;HPM_P1;HPM_P2
2022/09/28 00:01:24;;;;;;;2.47;2.33;;;;;;;11.10;64.59;99393.66;4860016;28;97293;-54
2022/09/28 00:03:53;;;;;;;8.23;2.90;;;;;;;11.09;64.57;99388.69;4867898;28;97202;-51
2022/09/28 00:06:23;;;;;;;2.33;2.20;;;;;;;11.09;64.29;99388.69;4854381;28;97145;-50
2022/09/28 00:08:49;;;;;;;2.43;2.23;;;;;;;11.04;64.29;99379.25;4868110;28;96895;-54
2022/09/28 00:11:14;;;;;;;4.50;2.87;;;;;;;11.01;64.28;99376.81;4878560;28;97761;-51
2022/09/28 00:13:41;;;;;;;3.13;2.40;;;;;;;10.98;64.35;99378.63;4864403;28;97371;-52
2022/09/28 00:16:10;;;;;;;3.90;3.20;;;;;;;10.95;64.24;99371.41;4872344;28;96939;-53
2022/09/28 00:18:36;;;;;;;3.73;2.70;;;;;;;10.92;64.53;99366.22;4852895;28;97360;-51
2022/09/28 00:21:07;;;;;;;3.03;2.70;;;;;;;10.90;64.55;99371.50;4867529;28;97505;-53
2022/09/28 00:23:34;;;;;;;2.57;2.10;;;;;;;10.89;64.71;99370.00;4870700;28;100326;-52
2022/09/28 00:26:04;;;;;;;2.03;1.93;;;;;;;10.91;64.58;99367.47;4856312;28;97431;-52
2022/09/28 00:28:30;;;;;;;2.70;2.50;;;;;;;10.89;64.48;99364.50;4866886;28;97561;-51
2022/09/28 00:30:56;;;;;;;2.27;2.17;;;;;;;10.88;64.60;99371.25;4872488;28;96753;-50
2022/09/28 00:33:21;;;;;;;4.57;2.77;;;;;;;10.87;64.57;99367.03;4869122;28;97236;-51
2022/09/28 00:35:54;;;;;;;4.70;2.60;;;;;;;10.87;64.32;99359.53;4869375;28;96777;-56
2022/09/28 00:38:19;;;;;;;3.10;2.80;;;;;;;10.84;64.44;99354.34;4859540;28;97430;-53
2022/09/28 00:40:45;;;;;;;2.17;2.07;;;;;;;10.81;64.53;99355.41;4870236;28;110175;-53
2022/09/28 00:43:21;;;;;;;2.57;2.40;;;;;;;10.78;64.47;99351.69;4861979;28;109581;-51
2022/09/28 00:45:55;;;;;;;2.30;2.20;;;;;;;10.75;64.48;99349.22;4873903;28;97473;-50
2022/09/28 00:48:21;;;;;;;2.33;2.20;;;;;;;10.72;64.24;99353.03;4863662;28;97159;-51
2022/09/28 00:50:47;;;;;;;2.80;2.50;;;;;;;10.66;64.33;99341.41;4869545;28;98064;-55
2022/09/28 00:53:20;;;;;;;2.50;2.30;;;;;;;10.62;64.31;99340.94;4868195;28;98402;-51
2022/09/28 00:55:50;;;;;;;2.50;2.30;;;;;;;10.61;64.22;99340.22;4853678;28;97371;-53
2022/09/28 00:58:26;;;;;;;3.07;2.77;;;;;;;10.57;64.25;99335.00;4869906;28;97439;-50
2022/09/28 01:00:53;;;;;;;2.60;2.40;;;;;;;10.54;64.18;99327.81;4860762;28;98213;-50
2022/09/28 01:03:19;;;;;;;2.40;2.30;;;;;;;10.52;64.38;99327.59;4868917;28;97455;-54
2022/09/28 01:05:47;;;;;;;3.10;2.80;;;;;;;10.50;64.37;99321.88;4866690;28;107890;-51
2022/09/28 01:08:14;;;;;;;6.03;2.20;;;;;;;10.50;64.51;99324.63;4865406;28;96794;-51
2022/09/28 01:10:42;;;;;;;3.63;2.73;;;;;;;10.51;64.50;99320.59;4868390;28;96892;-52
2022/09/28 01:13:09;;;;;;;7.77;2.83;;;;;;;10.50;64.50;99332.88;4853214;28;98496;-55
2022/09/28 01:15:43;;;;;;;2.63;2.43;;;;;;;10.51;64.63;99328.09;4868284;28;96879;-51
2022/09/28 01:18:23;;;;;;;3.40;2.20;;;;;;;10.47;64.50;99319.41;4862306;28;97242;-54
2022/09/28 01:21:05;;;;;;;2.90;2.70;;;;;;;10.46;64.30;99326.91;4868635;28;100208;-50
2022/09/28 01:23:55;;;;;;;3.10;2.80;;;;;;;10.43;64.17;99316.25;4851401;28;97093;-53
2022/09/28 01:26:38;;;;;;;2.73;2.47;;;;;;;10.39;64.11;99313.06;4863803;28;98208;-54
2022/09/28 01:29:39;;;;;;;3.77;3.27;;;;;;;10.30;64.18;99316.94;4862489;28;97109;-51
2022/09/28 01:32:35;;;;;;;2.93;2.73;;;;;;;10.20;64.15;99309.59;4883720;28;102388;-54
2022/09/28 01:35:07;;;;;;;3.93;2.67;;;;;;;10.14;64.28;99312.41;4866135;28;102898;-54
2022/09/28 01:37:44;;;;;;;3.00;2.50;;;;;;;10.11;64.29;99305.19;4869591;28;98303;-52
2022/09/28 01:40:12;;;;;;;3.67;2.80;;;;;;;10.11;64.45;99296.97;4883247;28;96984;-57
2022/09/28 01:42:40;;;;;;;3.20;2.90;;;;;;;10.12;64.30;99292.97;4880495;28;101918;-50
2022/09/28 01:45:15;;;;;;;5.13;2.97;;;;;;;10.10;64.20;99291.97;4864800;28;98545;-51
2022/09/28 01:47:44;;;;;;;4.63;3.20;;;;;;;10.05;64.22;99290.78;4875147;28;97398;-50
2022/09/28 01:50:14;;;;;;;3.30;3.10;;;;;;;10.04;64.24;99289.31;4862356;28;97487;-51
2022/09/28 01:52:48;;;;;;;3.03;2.80;;;;;;;10.05;64.10;99290.78;4872591;28;97301;-53
2022/09/28 01:55:19;;;;;;;2.97;2.77;;;;;;;10.04;64.21;99289.31;4854546;28;97483;-51
2022/09/28 01:57:50;;;;;;;3.60;3.13;;;;;;;10.01;64.25;99282.09;4871948;28;97126;-52
2022/09/28 02:00:18;;;;;;;5.20;3.43;;;;;;;9.98;64.32;99280.38;4871602;28;97013;-51
2022/09/28 02:02:52;;;;;;;3.87;3.47;;;;;;;9.98;64.33;99279.66;4865574;28;100454;-50
2022/09/28 02:05:23;;;;;;;3.60;3.30;;;;;;;9.97;64.30;99278.91;4879665;28;100321;-50
2022/09/28 02:08:14;;;;;;;3.10;2.83;;;;;;;9.94;64.27;99279.22;4856464;28;96719;-52
2022/09/28 02:10:52;;;;;;;4.20;3.10;;;;;;;9.92;64.27;99274.25;4865685;28;96809;-51
2022/09/28 02:13:20;;;;;;;3.00;2.80;;;;;;;9.88;64.10;99265.56;4869552;28;96937;-51
2022/09/28 02:16:13;;;;;;;5.87;2.87;;;;;;;9.87;64.20;99277.81;4857665;28;96944;-53
2022/09/28 02:18:39;;;;;;;2.93;2.73;;;;;;;9.84;64.12;99273.34;4875403;28;98381;-51
2022/09/28 02:21:05;;;;;;;2.90;2.50;;;;;;;9.84;64.21;99273.34;4862300;28;97118;-51
2022/09/28 02:23:34;;;;;;;3.37;3.07;;;;;;;9.86;64.17;99270.84;4874518;28;97198;-52
2022/09/28 02:26:02;;;;;;;3.50;3.20;;;;;;;9.83;64.24;99269.13;4867161;28;97100;-52
2022/09/28 02:28:29;;;;;;;3.87;3.30;;;;;;;9.83;64.26;99269.88;4870663;28;97044;-52
2022/09/28 02:30:54;;;;;;;7.23;4.10;;;;;;;9.82;64.03;99268.41;4865834;28;97555;-54
2022/09/28 02:33:42;;;;;;;4.00;3.60;;;;;;;9.83;64.39;99272.59;4862476;28;113105;-53
2022/09/28 02:36:08;;;;;;;3.50;2.97;;;;;;;9.85;64.33;99265.88;4872520;28;102203;-51
2022/09/28 02:38:36;;;;;;;4.83;3.60;;;;;;;9.86;64.27;99259.84;4860242;28;96964;-52
2022/09/28 02:41:08;;;;;;;7.93;3.33;;;;;;;9.87;64.03;99261.34;4869806;28;97276;-51
2022/09/28 02:43:58;;;;;;;3.70;3.40;;;;;;;9.85;64.25;99257.63;4858439;28;97679;-51
2022/09/28 02:46:29;;;;;;;6.50;3.37;;;;;;;9.83;64.36;99269.13;4863414;28;101612;-53
2022/09/28 02:49:12;;;;;;;3.60;3.30;;;;;;;9.82;64.45;99262.91;4859540;28;96657;-52
2022/09/28 02:51:50;;;;;;;4.00;3.70;;;;;;;9.80;64.42;99259.19;4874279;28;97628;-50
2022/09/28 02:54:18;;;;;;;7.53;3.03;;;;;;;9.78;64.37;99264.47;4876080;28;102050;-50
2022/09/28 02:57:09;;;;;;;4.67;3.87;;;;;;;9.82;64.43;99264.91;4865786;28;100187;-50
2022/09/28 03:00:04;;;;;;;4.87;3.80;;;;;;;9.83;64.47;99264.38;4866103;28;97321;-53
2022/09/28 03:02:29;;;;;;;3.63;3.03;;;;;;;9.83;64.38;99258.13;4864696;28;97265;-50
2022/09/28 03:05:17;;;;;;;4.57;3.60;;;;;;;9.83;64.59;99256.13;4870253;28;97152;-54
2022/09/28 03:07:57;;;;;;;3.60;3.27;;;;;;;9.85;64.63;99250.09;4863968;28;100208;-52
2022/09/28 03:10:36;;;;;;;3.97;3.57;;;;;;;9.86;64.44;99248.84;4856301;28;96889;-52
2022/09/28 03:13:03;;;;;;;6.77;3.33;;;;;;;9.87;64.42;99249.59;4874306;28;97470;-51
2022/09/28 03:15:34;;;;;;;5.53;3.90;;;;;;;9.89;64.41;99247.81;4854629;28;97208;-53
2022/09/28 03:18:00;;;;;;;4.40;4.00;;;;;;;9.92;64.46;99248.75;4871285;28;97308;-54
2022/09/28 03:20:27;;;;;;;3.97;3.60;;;;;;;9.93;64.54;99247.50;4868831;28;97476;-52
2022/09/28 03:22:53;;;;;;;4.60;4.00;;;;;;;9.94;64.48;99251.75;4856033;28;97598;-51
2022/09/28 03:25:18;;;;;;;3.80;3.43;;;;;;;9.94;64.31;99249.00;4866121;28;97030;-50
2022/09/28 03:27:44;;;;;;;5.07;4.13;;;;;;;9.94;64.47;99254.50;4849931;28;98237;-54
2022/09/28 03:30:10;;;;;;;7.90;4.07;;;;;;;9.95;64.49;99253.22;4869706;28;97263;-51
2022/09/28 03:32:36;;;;;;;3.40;3.10;;;;;;;9.96;64.64;99249.94;4866461;28;96851;-52
2022/09/28 03:35:02;;;;;;;4.13;3.80;;;;;;;9.98;64.57;99249.44;4858514;28;98697;-50
2022/09/28 03:37:28;;;;;;;4.17;3.53;;;;;;;9.99;64.63;99246.16;4869796;28;97491;-51
2022/09/28 03:39:53;;;;;;;4.73;3.53;;;;;;;10.01;64.54;99251.13;4870606;28;97039;-51
2022/09/28 03:42:18;;;;;;;3.77;3.47;;;;;;;10.02;64.59;99239.66;4865978;28;96934;-53
2022/09/28 03:44:44;;;;;;;4.30;3.90;;;;;;;9.99;64.59;99246.16;4870757;28;100541;-52
2022/09/28 03:47:09;;;;;;;4.70;4.30;;;;;;;9.97;64.80;99240.47;4873976;28;116024;-51
2022/09/28 03:49:35;;;;;;;3.47;3.27;;;;;;;10.01;64.68;99242.88;4851465;28;96983;-56
2022/09/28 03:52:00;;;;;;;4.00;3.70;;;;;;;10.02;64.77;99242.38;4871751;28;97205;-50
2022/09/28 03:54:26;;;;;;;3.57;3.17;;;;;;;10.00;64.84;99233.94;4852710;28;96783;-51
2022/09/28 03:56:51;;;;;;;6.30;3.80;;;;;;;10.00;64.83;99239.44;4864282;28;98570;-53
2022/09/28 03:59:17;;;;;;;4.90;4.30;;;;;;;9.99;64.74;99243.44;4870972;28;97770;-50
2022/09/28 04:01:43;;;;;;;4.37;3.70;;;;;;;9.99;64.88;99235.19;4849052;28;97067;-51
2022/09/28 04:04:12;;;;;;;3.80;3.47;;;;;;;9.99;65.12;99229.69;4866508;28;97906;-54
2022/09/28 04:06:37;;;;;;;5.57;3.50;;;;;;;10.01;64.95;99229.16;4861182;28;97178;-55
2022/09/28 04:09:03;;;;;;;6.10;4.23;;;;;;;10.07;65.18;99233.31;4861683;28;97017;-50
2022/09/28 04:11:28;;;;;;;8.33;5.30;;;;;;;10.12;65.13;99238.00;4873819;28;97087;-52
2022/09/28 04:13:54;;;;;;;6.87;4.77;;;;;;;10.16;64.81;99234.94;4880193;28;98499;-55
2022/09/28 04:16:19;;;;;;;7.63;4.80;;;;;;;10.14;65.00;99229.22;4861100;28;98447;-53
2022/09/28 04:18:45;;;;;;;4.80;4.40;;;;;;;10.13;65.16;99227.75;4869727;28;97372;-54
2022/09/28 04:21:13;;;;;;;6.40;4.60;;;;;;;10.16;65.09;99232.19;4857217;28;97302;-52
2022/09/28 04:23:39;;;;;;;7.87;4.80;;;;;;;10.20;65.11;99229.91;4871575;28;97087;-50
2022/09/28 04:26:06;;;;;;;5.93;5.10;;;;;;;10.22;65.04;99227.38;4866591;28;97626;-51
2022/09/28 04:31:19;;;;;;;5.40;4.60;;;;;;;10.22;65.03;99227.38;4865564;28;97233;-50
2022/09/28 04:33:45;;;;;;;6.27;5.63;;;;;;;10.22;64.97;99216.38;4858338;28;96974;-53
2022/09/28 04:36:10;;;;;;;4.97;4.43;;;;;;;10.23;65.05;99226.84;4868315;28;97153;-53
2022/09/28 04:38:39;;;;;;;7.20;5.60;;;;;;;10.24;64.98;99225.56;4867757;28;97243;-55
2022/09/28 04:41:05;;;;;;;7.40;4.57;;;;;;;10.27;64.85;99224.53;4863124;28;96863;-51
2022/09/28 04:43:31;;;;;;;7.07;5.57;;;;;;;10.28;65.00;99220.53;4875062;28;96832;-50
2022/09/28 04:46:01;;;;;;;6.10;4.37;;;;;;;10.30;65.00;99225.50;4855114;28;97329;-52
2022/09/28 04:48:28;;;;;;;5.97;5.40;;;;;;;10.31;64.82;99226.97;4870748;28;97087;-53
2022/09/28 04:50:55;;;;;;;6.00;4.97;;;;;;;10.29;64.93;99227.50;4870793;28;96864;-51
2022/09/28 04:53:20;;;;;;;7.30;5.80;;;;;;;10.26;65.05;99222.31;4872886;28;97577;-50
2022/09/28 04:56:04;;;;;;;4.83;4.37;;;;;;;10.28;65.09;99228.78;4871694;28;97292;-54
2022/09/28 04:58:30;;;;;;;4.33;3.80;;;;;;;10.28;65.01;99228.78;4863516;28;96867;-51
2022/09/28 05:00:58;;;;;;;5.70;4.77;;;;;;;10.27;64.92;99226.53;4877277;28;96913;-51
2022/09/28 05:03:24;;;;;;;7.60;4.80;;;;;;;10.21;65.00;99212.88;4858789;28;97351;-53
2022/09/28 05:05:50;;;;;;;5.70;4.07;;;;;;;10.22;65.20;99227.38;4876473;28;97063;-52
2022/09/28 05:08:16;;;;;;;8.60;5.77;;;;;;;10.26;65.20;99222.31;4872524;28;97301;-54
2022/09/28 05:10:41;;;;;;;11.83;5.80;;;;;;;10.29;65.25;99221.25;4857417;28;97348;-53
2022/09/28 05:13:08;;;;;;;10.67;5.33;;;;;;;10.31;65.22;99219.47;4872451;28;97250;-52
2022/09/28 05:15:34;;;;;;;9.57;5.93;;;;;;;10.31;65.19;99230.44;4866210;28;96917;-53
2022/09/28 05:18:00;;;;;;;11.50;6.60;;;;;;;10.31;65.24;99222.22;4859376;28;96884;-54
2022/09/28 05:20:25;;;;;;;19.47;7.83;;;;;;;10.31;65.12;99224.22;4865874;28;109270;-51
2022/09/28 05:22:50;;;;;;;13.87;7.83;;;;;;;10.31;65.17;99216.72;4862889;28;97921;-56
2022/09/28 05:25:16;;;;;;;9.23;5.47;;;;;;;10.35;65.15;99221.91;4868531;28;98529;-50
2022/09/28 05:27:42;;;;;;;10.23;5.90;;;;;;;10.34;65.08;99223.91;4870680;28;97023;-53
2022/09/28 05:30:09;;;;;;;7.23;4.73;;;;;;;10.35;65.21;99221.91;4852041;28;97038;-51
2022/09/28 05:32:39;;;;;;;4.73;4.20;;;;;;;10.36;65.08;99221.38;4863958;28;97281;-54
2022/09/28 05:35:05;;;;;;;5.23;4.20;;;;;;;10.36;65.15;99220.63;4865506;28;96763;-53
2022/09/28 05:37:30;;;;;;;5.27;4.40;;;;;;;10.36;65.07;99217.88;4859923;28;96902;-52
2022/09/28 05:39:56;;;;;;;5.60;4.87;;;;;;;10.36;65.07;99215.88;4871412;28;112052;-51
2022/09/28 05:42:21;;;;;;;5.40;4.60;;;;;;;10.34;65.08;99212.16;4856729;28;96811;-54
2022/09/28 05:44:46;;;;;;;5.93;4.80;;;;;;;10.32;65.22;99212.72;4862362;28;102799;-58
2022/09/28 05:47:12;;;;;;;4.73;4.23;;;;;;;10.34;65.27;99212.16;4869201;28;97198;-54
2022/09/28 05:49:37;;;;;;;4.47;3.87;;;;;;;10.37;65.24;99206.38;4853101;28;107924;-52
2022/09/28 05:52:02;;;;;;;7.83;4.37;;;;;;;10.38;65.28;99213.34;4865999;28;107502;-52
2022/09/28 05:54:28;;;;;;;9.40;4.07;;;;;;;10.40;65.41;99210.06;4867567;28;98143;-55
2022/09/28 05:56:53;;;;;;;5.33;4.20;;;;;;;10.43;65.32;99226.25;4853881;28;109120;-54
2022/09/28 05:59:18;;;;;;;8.93;5.57;;;;;;;10.46;65.42;99218.97;4874401;28;109507;-53
2022/09/28 06:01:44;;;;;;;6.37;4.93;;;;;;;10.46;65.37;99216.94;4870414;28;105299;-52
2022/09/28 06:04:09;;;;;;;6.43;5.10;;;;;;;10.48;65.33;99221.94;4860657;28;97533;-52
2022/09/28 06:06:35;;;;;;;5.90;4.73;;;;;;;10.48;65.33;99216.44;4870285;28;97033;-52
2022/09/28 06:09:00;;;;;;;7.00;5.20;;;;;;;10.52;65.50;99223.13;4870093;28;97669;-52
2022/09/28 06:11:26;;;;;;;5.50;4.70;;;;;;;10.57;65.49;99218.78;4851934;28;106021;-56
2022/09/28 06:13:54;;;;;;;5.97;5.13;;;;;;;10.59;65.39;99215.50;4869543;28;97591;-52
2022/09/28 06:16:19;;;;;;;7.83;5.13;;;;;;;10.61;65.38;99221.22;4855845;28;97447;-53
2022/09/28 06:18:45;;;;;;;6.87;5.80;;;;;;;10.64;65.55;99228.41;4869877;28;96841;-53
2022/09/28 06:21:11;;;;;;;7.10;5.17;;;;;;;10.66;65.39;99223.84;4871282;28;114208;-53
2022/09/28 06:23:37;;;;;;;7.97;5.47;;;;;;;10.67;65.40;99227.34;4852804;28;96986;-51
2022/09/28 06:26:02;;;;;;;6.90;5.27;;;;;;;10.68;65.38;99224.06;4865413;28;97012;-52
2022/09/28 06:28:27;;;;;;;9.43;5.90;;;;;;;10.69;65.33;99225.56;4866799;28;108440;-51
2022/09/28 06:30:53;;;;;;;7.23;5.63;;;;;;;10.72;65.43;99229.28;4858777;28;111488;-52
2022/09/28 06:33:18;;;;;;;6.80;5.80;;;;;;;10.74;65.39;99229.47;4875510;28;97059;-55
2022/09/28 06:35:43;;;;;;;8.60;5.67;;;;;;;10.74;65.28;99234.97;4868644;28;101100;-51
2022/09/28 06:38:09;;;;;;;6.97;5.37;;;;;;;10.76;65.51;99229.69;4853455;28;99612;-52
2022/09/28 06:40:35;;;;;;;8.73;6.13;;;;;;;10.79;65.47;99237.63;4870649;28;97300;-53
2022/09/28 06:43:01;;;;;;;8.70;5.83;;;;;;;10.81;65.42;99242.63;4867101;28;97314;-56
2022/09/28 06:45:28;;;;;;;6.73;5.20;;;;;;;10.82;65.48;99239.31;4863936;28;96687;-55
2022/09/28 06:47:55;;;;;;;8.13;6.40;;;;;;;10.83;65.50;99242.81;4871054;28;96731;-52
2022/09/28 06:50:21;;;;;;;5.97;5.40;;;;;;;10.86;65.44;99247.25;4852588;28;96962;-56
2022/09/28 06:52:50;;;;;;;6.53;5.50;;;;;;;10.90;65.35;99251.19;4871090;28;97196;-58
2022/09/28 06:55:15;;;;;;;7.07;5.47;;;;;;;10.91;65.55;99249.91;4877985;28;97023;-54
2022/09/28 06:57:40;;;;;;;8.10;6.13;;;;;;;10.92;65.33;99253.41;4860435;28;97186;-52
2022/09/28 07:00:07;;;;;;;8.83;6.33;;;;;;;10.93;65.09;99257.63;4871778;28;115301;-53
2022/09/28 07:02:32;;;;;;;8.67;6.27;;;;;;;10.96;65.30;99253.84;4865519;28;97099;-55
2022/09/28 07:04:57;;;;;;;8.90;6.07;;;;;;;10.97;65.33;99255.31;4866899;28;112117;-51
2022/09/28 07:07:23;;;;;;;7.93;5.97;;;;;;;10.98;65.47;99256.81;4877621;28;97078;-51
2022/09/28 07:09:52;;;;;;;7.20;6.03;;;;;;;11.01;65.42;99258.47;4858284;28;97004;-54
2022/09/28 07:12:18;;;;;;;8.20;5.97;;;;;;;11.01;65.34;99261.22;4868135;28;96807;-52
2022/09/28 07:14:43;;;;;;;7.80;5.67;;;;;;;11.03;65.60;99261.47;4867464;28;114211;-52
2022/09/28 07:17:08;;;;;;;10.27;6.00;;;;;;;11.03;65.46;99266.97;4855472;28;98809;-57
2022/09/28 07:19:35;;;;;;;7.23;6.27;;;;;;;11.01;65.37;99261.97;4875432;28;96906;-52
2022/09/28 07:22:00;;;;;;;7.63;6.07;;;;;;;11.04;65.41;99271.19;4869064;28;97221;-51
2022/09/28 07:24:26;;;;;;;8.07;6.77;;;;;;;11.05;65.60;99269.94;4857517;28;97210;-53
2022/09/28 07:26:51;;;;;;;8.83;6.60;;;;;;;11.07;65.66;99267.38;4866167;28;97559;-52
2022/09/28 07:29:16;;;;;;;7.87;6.20;;;;;;;11.08;65.35;99275.13;4866940;28;110899;-52
2022/09/28 07:31:42;;;;;;;9.00;6.90;;;;;;;11.07;65.60;99270.88;4872174;28;120191;-55
2022/09/28 07:34:07;;;;;;;11.00;7.13;;;;;;;11.04;65.52;99282.94;4875499;28;97144;-52
2022/09/28 07:36:33;;;;;;;13.50;6.73;;;;;;;11.05;65.68;99275.44;4856860;28;109643;-51
2022/09/28 07:39:00;;;;;;;9.53;7.00;;;;;;;11.09;65.90;99284.13;4868015;28;97367;-52
2022/09/28 07:41:31;;;;;;;10.20;6.93;;;;;;;11.10;65.78;99288.34;4876982;28;101711;-52
2022/09/28 07:44:06;;;;;;;8.07;6.70;;;;;;;11.12;65.77;99294.78;4858367;28;97749;-55
2022/09/28 07:46:39;;;;;;;8.07;6.00;;;;;;;11.13;65.86;99290.03;4863870;28;97485;-52
2022/09/28 07:49:05;;;;;;;9.13;5.73;;;;;;;11.15;65.84;99282.75;4869232;28;97360;-54
2022/09/28 07:51:31;;;;;;;8.57;6.40;;;;;;;11.19;65.78;99291.41;4863871;28;97539;-53
2022/09/28 07:53:57;;;;;;;7.13;5.67;;;;;;;11.20;65.97;99289.41;4865393;28;96758;-56
2022/09/28 07:56:23;;;;;;;7.47;6.00;;;;;;;11.22;65.86;99303.38;4867103;28;97413;-53
2022/09/28 07:58:48;;;;;;;7.47;6.07;;;;;;;11.24;66.03;99300.84;4869889;28;97697;-53
2022/09/28 08:01:15;;;;;;;7.90;5.93;;;;;;;11.28;65.98;99298.50;4851249;28;97065;-53
2022/09/28 08:03:44;;;;;;;6.97;6.13;;;;;;;11.32;65.98;99301.69;4869443;28;97285;-54
2022/09/28 08:06:11;;;;;;;6.10;5.50;;;;;;;11.33;65.93;99308.69;4870961;28;97163;-53
2022/09/28 08:08:42;;;;;;;7.43;5.57;;;;;;;11.40;65.93;99301.81;4861597;28;99187;-53
2022/09/28 08:11:09;;;;;;;5.77;5.10;;;;;;;11.42;65.84;99299.25;4869933;28;97262;-53
2022/09/28 08:13:35;;;;;;;7.23;5.40;;;;;;;11.43;66.01;99312.47;4858146;28;97534;-55
2022/09/28 08:16:01;;;;;;;6.10;5.33;;;;;;;11.44;66.11;99308.47;4875995;28;96919;-54
2022/09/28 08:18:27;;;;;;;7.00;5.37;;;;;;;11.46;66.24;99311.44;4874012;28;101784;-54
2022/09/28 08:23:37;;;;;;;6.40;5.60;;;;;;;11.56;65.96;99315.22;4870792;28;97409;-53
2022/09/28 08:26:03;;;;;;;6.53;5.67;;;;;;;11.61;66.02;99316.38;4853497;28;97148;-53
2022/09/28 08:28:29;;;;;;;7.57;5.43;;;;;;;11.65;66.14;99323.06;4868651;28;97790;-53
2022/09/28 08:30:54;;;;;;;6.93;5.43;;;;;;;11.71;65.93;99320.22;4870636;28;96985;-55
2022/09/28 08:33:20;;;;;;;7.40;5.30;;;;;;;11.75;66.14;99326.88;4854970;28;97378;-56
2022/09/28 08:35:46;;;;;;;6.67;5.73;;;;;;;11.80;66.06;99326.03;4867903;28;96888;-56
2022/09/28 08:38:12;;;;;;;4.90;4.40;;;;;;;11.85;66.07;99329.94;4855975;28;97670;-53
2022/09/28 08:40:47;;;;;;;7.80;4.70;;;;;;;11.93;66.03;99325.25;4876230;28;97132;-53
2022/09/28 08:43:34;;;;;;;6.77;3.73;;;;;;;11.97;66.48;99336.69;4868982;28;97516;-53
2022/09/28 08:46:00;;;;;;;5.43;3.60;;;;;;;12.03;66.19;99329.06;4873539;28;97433;-56
2022/09/28 08:48:43;;;;;;;4.03;3.63;;;;;;;12.12;66.10;99344.41;4860202;28;97170;-55
2022/09/28 08:51:18;;;;;;;4.13;3.73;;;;;;;12.18;66.35;99336.75;4865531;28;101537;-53
2022/09/28 08:53:59;;;;;;;3.37;3.00;;;;;;;12.22;66.02;99342.69;4854354;28;96788;-53
2022/09/28 08:56:46;;;;;;;3.10;2.90;;;;;;;12.25;66.35;99355.41;4874918;28;96602;-55
2022/09/28 08:59:37;;;;;;;4.17;3.20;;;;;;;12.27;66.37;99347.34;4860544;28;100822;-52
2022/09/28 09:02:09;;;;;;;3.07;2.87;;;;;;;12.33;65.96;99356.22;4850145;28;100213;-54
2022/09/28 09:04:34;;;;;;;2.07;1.97;;;;;;;12.37;65.82;99353.88;4884756;28;96730;-54
2022/09/28 09:07:30;;;;;;;6.00;3.50;;;;;;;12.42;66.14;99355.78;4853092;28;99029;-57
2022/09/28 09:10:02;;;;;;;2.83;2.50;;;;;;;12.43;66.10;99357.22;4869322;28;100728;-53
2022/09/28 09:12:43;;;;;;;3.40;2.90;;;;;;;12.49;66.13;99358.59;4865348;28;100207;-53
2022/09/28 09:15:37;;;;;;;2.83;2.63;;;;;;;12.58;66.07;99360.16;4869075;28;97109;-56
2022/09/28 09:18:26;;;;;;;2.40;2.23;;;;;;;12.68;66.24;99359.16;4864761;28;97077;-53
2022/09/28 09:20:57;;;;;;;2.90;2.43;;;;;;;12.78;66.17;99362.19;4864054;28;101066;-52
2022/09/28 09:23:36;;;;;;;3.27;3.00;;;;;;;12.89;66.08;99358.44;4872395;28;97038;-57
2022/09/28 09:26:16;;;;;;;2.43;1.80;;;;;;;12.96;66.07;99374.28;4869346;28;98025;-52
2022/09/28 09:29:19;;;;;;;4.10;2.60;;;;;;;13.02;66.23;99356.31;4854784;28;96907;-56
2022/09/28 09:32:02;;;;;;;2.60;2.40;;;;;;;13.08;65.77;99356.97;4866207;28;100796;-56
2022/09/28 09:34:49;;;;;;;2.77;2.57;;;;;;;13.14;65.86;99363.06;4863804;28;96784;-52
2022/09/28 09:37:48;;;;;;;2.20;2.10;;;;;;;13.17;65.94;99367.50;4869923;28;97070;-53
2022/09/28 09:40:34;;;;;;;3.60;2.67;;;;;;;13.19;65.72;99367.69;4874360;28;97293;-52
2022/09/28 09:43:22;;;;;;;2.13;2.03;;;;;;;13.25;65.79;99368.31;4850432;28;101320;-56
2022/09/28 09:46:29;;;;;;;2.43;1.93;;;;;;;13.31;65.82;99371.66;4867742;28;98376;-53
2022/09/28 09:48:59;;;;;;;1.83;1.73;;;;;;;13.38;65.74;99368.22;4864287;28;98449;-55
2022/09/28 09:51:46;;;;;;;2.40;2.20;;;;;;;13.42;65.85;99374.13;4855539;28;97235;-54
2022/09/28 09:54:20;;;;;;;3.53;2.20;;;;;;;13.46;65.66;99380.06;4872133;28;103692;-52
2022/09/28 09:56:52;;;;;;;2.20;1.77;;;;;;;13.46;65.56;99373.78;4868840;28;101671;-55
2022/09/28 09:59:32;;;;;;;1.43;1.37;;;;;;;13.43;65.32;99380.41;4866940;28;97543;-53
2022/09/28 10:02:01;;;;;;;1.60;1.50;;;;;;;13.40;65.50;99382.22;4862101;28;97218;-53
2022/09/28 10:04:36;;;;;;;1.40;1.30;;;;;;;13.46;65.71;99385.56;4868214;28;98254;-53
2022/09/28 10:07:08;;;;;;;1.40;1.30;;;;;;;13.55;65.57;99381.56;4874108;28;101898;-53
2022/09/28 10:09:44;;;;;;;1.70;1.60;;;;;;;13.66;65.51;99383.28;4874631;28;98705;-53
2022/09/28 10:12:18;;;;;;;2.70;1.33;;;;;;;13.74;65.55;99387.56;4882601;28;97377;-56
2022/09/28 10:14:45;;;;;;;1.33;1.20;;;;;;;13.81;65.49;99391.66;4873158;28;101822;-53
2022/09/28 10:17:15;;;;;;;1.00;1.00;;;;;;;13.85;65.40;99398.31;4852270;28;99028;-54
2022/09/28 10:19:42;;;;;;;3.00;0.80;;;;;;;13.85;65.37;99392.06;4869465;28;97400;-53
2022/09/28 10:22:13;;;;;;;1.40;1.30;;;;;;;13.84;65.32;99390.59;4857111;28;96844;-52
2022/09/28 10:24:44;;;;;;;3.90;1.20;;;;;;;13.80;65.35;99385.41;4878941;28;97171;-52
2022/09/28 10:27:23;;;;;;;1.43;1.00;;;;;;;13.79;65.35;99386.69;4859482;28;97015;-52
2022/09/28 10:29:58;;;;;;;2.63;1.07;;;;;;;13.73;65.46;99390.91;4874487;28;97039;-54
2022/09/28 10:32:26;;;;;;;1.03;1.03;;;;;;;13.71;65.20;99393.47;4857716;28;97662;-52
2022/09/28 10:35:05;;;;;;;6.40;3.60;;;;;;;13.70;65.39;99394.75;4874130;28;98562;-53
2022/09/28 10:37:30;;;;;;;3.37;3.07;;;;;;;13.67;65.48;99387.56;4861548;28;97476;-52
2022/09/28 10:39:56;;;;;;;3.90;3.30;;;;;;;13.68;65.38;99397.31;4875774;28;97407;-52
2022/09/28 10:42:25;;;;;;;2.30;2.20;;;;;;;13.70;65.35;99403.03;4879037;28;97290;-52
2022/09/28 10:45:18;;;;;;;2.03;1.93;;;;;;;13.69;65.34;99401.56;4860621;28;98765;-54
2022/09/28 10:47:44;;;;;;;2.27;2.07;;;;;;;13.68;65.42;99400.06;4862148;28;101548;-52
2022/09/28 10:50:22;;;;;;;2.60;2.40;;;;;;;13.69;65.42;99399.53;4873057;28;97049;-53
2022/09/28 10:52:47;;;;;;;2.73;2.30;;;;;;;13.68;65.51;99400.06;4872726;28;97117;-52
2022/09/28 10:55:31;;;;;;;1.90;1.60;;;;;;;13.68;65.49;99408.34;4865460;28;96775;-52
2022/09/28 10:57:58;;;;;;;2.33;1.90;;;;;;;13.66;65.56;99403.38;4876454;28;102695;-52
2022/09/28 11:00:43;;;;;;;1.53;1.43;;;;;;;13.65;65.56;99415.00;4865990;28;96707;-53
2022/09/28 11:03:22;;;;;;;1.43;1.33;;;;;;;13.62;65.62;99413.31;4854823;28;97087;-52
2022/09/28 11:05:54;;;;;;;1.70;1.20;;;;;;;13.60;65.54;99411.09;4869834;28;97622;-52
2022/09/28 11:08:30;;;;;;;2.70;2.17;;;;;;;13.55;65.36;99409.22;4853039;28;98214;-52
2022/09/28 11:11:14;;;;;;;3.33;2.40;;;;;;;13.51;65.51;99414.34;4876611;28;96938;-52
2022/09/28 11:13:46;;;;;;;4.60;3.00;;;;;;;13.46;65.49;99407.69;4860182;28;98827;-52
2022/09/28 11:16:30;;;;;;;6.50;3.87;;;;;;;13.43;65.43;99414.28;4864450;28;97840;-53
2022/09/28 11:19:02;;;;;;;5.63;3.70;;;;;;;13.41;65.72;99411.31;4867840;28;100207;-52
2022/09/28 11:21:32;;;;;;;2.77;2.00;;;;;;;13.42;65.70;99415.56;4868075;28;97102;-52
2022/09/28 11:24:05;;;;;;;1.50;1.40;;;;;;;13.43;65.76;99414.28;4854989;28;97543;-52
2022/09/28 11:26:41;;;;;;;0.87;0.87;;;;;;;13.45;65.64;99413.75;4878885;28;97368;-52
2022/09/28 11:29:18;;;;;;;0.80;0.80;;;;;;;13.46;65.58;99418.72;4857824;28;96922;-52
2022/09/28 11:31:45;;;;;;;3.03;0.90;;;;;;;13.47;65.59;99416.72;4867615;28;96809;-52
2022/09/28 11:34:20;;;;;;;0.80;0.80;;;;;;;13.50;65.52;99421.13;4859695;28;96994;-52
2022/09/28 11:37:14;;;;;;;1.00;0.90;;;;;;;13.49;65.52;99419.66;4865727;28;97588;-54
2022/09/28 11:39:51;;;;;;;0.70;0.70;;;;;;;13.48;65.47;99424.44;4870246;28;102708;-53
2022/09/28 11:42:24;;;;;;;0.90;0.90;;;;;;;13.45;65.45;99427.56;4857509;28;96964;-52
2022/09/28 11:45:03;;;;;;;1.50;1.10;;;;;;;13.46;65.43;99427.03;4874210;28;96857;-53
2022/09/28 11:47:40;;;;;;;4.17;1.17;;;;;;;13.44;65.63;99426.06;4854521;28;96934;-52
2022/09/28 11:50:47;;;;;;;0.80;0.73;;;;;;;13.46;65.76;99429.78;4868533;28;97734;-52
2022/09/28 11:53:19;;;;;;;0.70;0.53;;;;;;;13.49;65.65;99425.19;4869750;28;98293;-52
2022/09/28 11:55:53;;;;;;;3.07;1.10;;;;;;;13.50;65.59;99432.19;4863385;28;97356;-52